createdAt,value
2019-01-29T00:02:09.445Z,7.90
2019-01-29T00:04:37.544Z,7.03
2019-01-29T00:07:05.602Z,6.80
2019-01-29T00:09:33.700Z,6.77
2019-01-29T00:12:01.700Z,7.43
2019-01-29T00:14:29.802Z,6.57
2019-01-29T00:16:57.917Z,7.53
2019-01-29T00:19:25.935Z,7.00
2019-01-29T00:21:54.026Z,6.77
2019-01-29T00:24:24.923Z,8.30
2019-01-29T00:26:52.975Z,7.42
2019-01-29T00:29:21.194Z,9.10
2019-01-29T00:31:50.028Z,8.23
2019-01-29T00:34:18.100Z,6.90
2019-01-29T00:36:49.052Z,9.58
2019-01-29T00:39:17.178Z,9.10
2019-01-29T00:41:45.273Z,8.83
2019-01-29T00:44:13.348Z,9.07
2019-01-29T00:46:41.393Z,8.20
2019-01-29T00:49:09.502Z,8.23
2019-01-29T00:51:39.252Z,8.93
2019-01-29T00:54:07.256Z,8.30
2019-01-29T00:56:35.267Z,7.60
2019-01-29T00:59:05.740Z,8.93
2019-01-29T01:01:33.906Z,9.37
2019-01-29T01:04:02.027Z,9.00
2019-01-29T01:06:30.087Z,8.73
2019-01-29T01:08:58.261Z,9.40
2019-01-29T01:11:26.368Z,8.77
2019-01-29T01:13:54.387Z,9.37
2019-01-29T01:16:22.468Z,9.53
2019-01-29T01:18:52.133Z,8.57
2019-01-29T01:21:20.257Z,6.97
2019-01-29T01:23:48.373Z,8.43
2019-01-29T01:26:16.571Z,8.78
2019-01-29T01:28:44.713Z,8.00
2019-01-29T01:31:12.796Z,8.27
2019-01-29T01:33:40.993Z,7.75
2019-01-29T01:36:09.123Z,8.83
2019-01-29T01:38:37.228Z,8.83
2019-01-29T01:41:06.637Z,9.93
2019-01-29T01:43:35.454Z,9.73
2019-01-29T01:46:06.484Z,9.97
2019-01-29T01:48:34.674Z,9.00
2019-01-29T01:51:02.747Z,10.20
2019-01-29T01:53:30.800Z,8.90
2019-01-29T01:55:59.223Z,8.90
2019-01-29T01:58:28.288Z,10.93
2019-01-29T02:00:56.445Z,9.40
2019-01-29T02:03:24.558Z,10.27
2019-01-29T02:05:53.403Z,9.07
2019-01-29T02:08:21.477Z,8.98
2019-01-29T02:10:49.554Z,10.93
2019-01-29T02:13:17.571Z,9.23
2019-01-29T02:15:45.617Z,10.67
2019-01-29T02:18:13.644Z,10.63
2019-01-29T02:20:41.683Z,9.77
2019-01-29T02:23:09.727Z,10.53
2019-01-29T02:25:37.957Z,10.47
2019-01-29T02:28:06.083Z,10.93
2019-01-29T02:30:34.167Z,10.15
2019-01-29T02:33:02.303Z,11.47
2019-01-29T02:35:30.439Z,11.60
2019-01-29T02:40:56.502Z,10.90
2019-01-29T02:43:25.384Z,11.73
2019-01-29T02:45:53.502Z,13.10
2019-01-29T02:48:21.708Z,13.70
2019-01-29T02:50:49.754Z,14.33
2019-01-29T02:53:18.591Z,14.03
2019-01-29T02:55:47.490Z,12.95
2019-01-29T02:58:15.532Z,14.03
2019-01-29T03:00:43.557Z,11.87
2019-01-29T03:03:13.780Z,13.50
2019-01-29T03:05:41.835Z,12.60
2019-01-29T03:08:09.852Z,12.00
2019-01-29T03:10:37.897Z,11.10
2019-01-29T03:13:05.954Z,11.97
2019-01-29T03:15:35.637Z,10.57
2019-01-29T03:18:04.472Z,10.37
2019-01-29T03:20:32.539Z,9.27
2019-01-29T03:23:01.304Z,10.47
2019-01-29T03:25:29.329Z,9.00
2019-01-29T03:27:57.343Z,9.43
2019-01-29T03:30:25.368Z,9.60
2019-01-29T03:32:53.447Z,8.73
2019-01-29T03:38:17.370Z,6.63
2019-01-29T03:40:45.468Z,8.63
2019-01-29T03:43:13.936Z,8.30
2019-01-29T03:45:42.070Z,9.37
2019-01-29T03:48:10.172Z,9.03
2019-01-29T03:50:38.214Z,8.50
2019-01-29T03:53:06.362Z,9.07
2019-01-29T03:55:34.480Z,10.63
2019-01-29T03:58:02.507Z,11.67
2019-01-29T04:00:30.582Z,12.37
2019-01-29T04:02:58.602Z,12.63
2019-01-29T04:05:26.685Z,12.80
2019-01-29T04:07:54.838Z,14.35
2019-01-29T04:10:22.882Z,14.17
2019-01-29T04:12:51.687Z,11.53
2019-01-29T04:15:20.406Z,12.47
2019-01-29T04:17:48.640Z,13.97
2019-01-29T04:20:17.639Z,12.70
2019-01-29T04:22:46.066Z,13.57
2019-01-29T04:25:14.272Z,12.93
2019-01-29T04:27:42.300Z,12.17
2019-01-29T04:30:18.293Z,11.73
2019-01-29T04:32:46.351Z,11.37
2019-01-29T04:35:14.456Z,10.93
2019-01-29T04:37:42.549Z,10.77
2019-01-29T04:40:17.545Z,10.83
2019-01-29T04:42:45.663Z,11.10
2019-01-29T04:45:14.428Z,10.97
2019-01-29T04:47:42.528Z,11.40
2019-01-29T04:50:12.201Z,10.80
2019-01-29T04:52:40.330Z,11.10
2019-01-29T04:55:09.741Z,10.93
2019-01-29T04:57:57.289Z,11.00
2019-01-29T05:00:25.932Z,12.47
2019-01-29T05:02:54.146Z,11.60
2019-01-29T05:05:22.202Z,12.63
2019-01-29T05:07:50.242Z,14.30
2019-01-29T05:10:19.317Z,15.63
2019-01-29T05:12:47.376Z,14.90
2019-01-29T05:15:16.504Z,16.43
2019-01-29T05:17:45.312Z,17.63
2019-01-29T05:20:13.488Z,20.10
2019-01-29T05:22:41.597Z,21.73
2019-01-29T05:25:10.360Z,20.77
2019-01-29T05:27:38.400Z,21.30
2019-01-29T05:30:11.009Z,22.12
2019-01-29T05:32:39.144Z,23.40
2019-01-29T05:35:07.679Z,24.23
2019-01-29T05:37:35.684Z,23.43
2019-01-29T05:40:05.454Z,27.03
2019-01-29T05:42:33.546Z,22.43
2019-01-29T05:45:01.578Z,23.60
2019-01-29T05:47:29.633Z,26.23
2019-01-29T05:50:00.541Z,25.20
2019-01-29T05:52:28.602Z,23.17
2019-01-29T05:54:56.694Z,23.10
2019-01-29T05:57:24.794Z,25.55
2019-01-29T05:59:52.823Z,24.20
2019-01-29T06:02:22.508Z,23.93
2019-01-29T06:04:50.562Z,23.30
2019-01-29T06:07:18.615Z,30.50
2019-01-29T06:09:46.641Z,23.80
2019-01-29T06:12:15.125Z,24.90
2019-01-29T06:14:43.167Z,25.63
2019-01-29T06:17:11.168Z,26.57
2019-01-29T06:19:39.689Z,26.00
2019-01-29T06:22:09.326Z,24.40
2019-01-29T06:24:37.420Z,25.03
2019-01-29T06:27:05.544Z,26.42
2019-01-29T06:29:33.623Z,26.60
2019-01-29T06:32:01.643Z,25.67
2019-01-29T06:34:29.667Z,26.27
2019-01-29T06:36:58.371Z,27.10
2019-01-29T06:39:26.481Z,30.27
2019-01-29T06:41:56.736Z,26.83
2019-01-29T06:44:24.834Z,31.53
2019-01-29T06:46:52.909Z,30.73
2019-01-29T06:49:21.024Z,28.83
2019-01-29T06:51:49.117Z,30.20
2019-01-29T06:54:17.209Z,31.93
2019-01-29T06:56:45.305Z,35.23
2019-01-29T06:59:13.451Z,41.13
2019-01-29T07:01:47.107Z,35.50
2019-01-29T07:04:15.141Z,35.97
2019-01-29T07:06:43.470Z,34.70
2019-01-29T07:09:11.676Z,32.53
2019-01-29T07:11:39.733Z,32.42
2019-01-29T07:14:07.771Z,30.85
2019-01-29T07:16:38.196Z,26.53
2019-01-29T07:19:07.987Z,27.25
2019-01-29T07:21:36.136Z,30.83
2019-01-29T07:24:04.213Z,29.27
2019-01-29T07:26:33.893Z,27.13
2019-01-29T07:29:02.007Z,25.32
2019-01-29T07:31:30.106Z,26.93
2019-01-29T07:33:59.659Z,25.65
2019-01-29T07:36:27.696Z,29.83
2019-01-29T07:38:55.743Z,27.30
2019-01-29T07:41:26.132Z,26.90
2019-01-29T07:43:53.777Z,25.87
2019-01-29T07:46:23.845Z,26.00
2019-01-29T07:48:51.715Z,27.30
2019-01-29T07:51:19.844Z,26.35
2019-01-29T07:53:47.890Z,26.93
2019-01-29T07:56:17.188Z,27.55
2019-01-29T07:58:45.243Z,26.73
2019-01-29T08:01:14.033Z,25.77
2019-01-29T08:03:42.062Z,26.40
2019-01-29T08:06:10.168Z,25.87
2019-01-29T08:08:41.503Z,25.68
2019-01-29T08:11:09.611Z,25.93
2019-01-29T08:13:37.673Z,27.13
2019-01-29T08:16:05.734Z,26.20
2019-01-29T08:18:33.847Z,27.40
2019-01-29T08:21:01.927Z,26.20
2019-01-29T08:23:30.053Z,25.13
2019-01-29T08:25:58.210Z,25.43
2019-01-29T08:28:26.268Z,23.67
2019-01-29T08:30:54.300Z,25.10
2019-01-29T08:33:22.444Z,25.50
2019-01-29T08:35:51.315Z,25.40
2019-01-29T08:38:19.355Z,25.47
2019-01-29T08:40:48.277Z,27.50
2019-01-29T08:43:16.311Z,24.93
2019-01-29T08:45:44.556Z,25.50
2019-01-29T08:48:12.695Z,23.97
2019-01-29T08:50:40.703Z,21.77
2019-01-29T08:53:10.391Z,23.33
2019-01-29T08:55:38.411Z,22.83
2019-01-29T08:58:06.496Z,20.80
2019-01-29T09:00:34.593Z,22.90
2019-01-29T09:03:02.689Z,20.10
2019-01-29T09:05:30.727Z,22.07
2019-01-29T09:07:58.747Z,18.87
2019-01-29T09:10:26.775Z,20.07
2019-01-29T09:12:57.085Z,19.33
2019-01-29T09:15:25.279Z,19.37
2019-01-29T09:17:53.305Z,18.73
2019-01-29T09:20:25.631Z,17.10
2019-01-29T09:22:53.381Z,18.70
2019-01-29T09:25:22.777Z,16.60
2019-01-29T09:27:50.990Z,17.45
2019-01-29T09:30:19.502Z,17.60
2019-01-29T09:32:47.539Z,18.20
2019-01-29T09:35:15.556Z,18.03
2019-01-29T09:37:43.610Z,16.27
2019-01-29T09:40:13.289Z,16.30
2019-01-29T09:42:41.572Z,17.20
2019-01-29T09:45:13.360Z,16.90
2019-01-29T09:47:41.447Z,16.67
2019-01-29T09:50:11.205Z,17.63
2019-01-29T09:52:39.291Z,16.43
2019-01-29T09:55:09.263Z,17.03
2019-01-29T09:57:37.331Z,16.97
2019-01-29T10:00:16.062Z,15.87
2019-01-29T10:02:44.174Z,16.37
2019-01-29T10:05:12.208Z,17.07
2019-01-29T10:07:40.237Z,17.63
2019-01-29T10:10:10.469Z,17.63
2019-01-29T10:12:38.553Z,17.23
2019-01-29T10:15:10.979Z,16.07
2019-01-29T10:17:39.235Z,16.80
2019-01-29T10:20:07.763Z,17.50
2019-01-29T10:22:35.792Z,15.18
2019-01-29T10:25:05.102Z,13.60
2019-01-29T10:27:41.563Z,15.78
2019-01-29T10:30:11.059Z,15.13
2019-01-29T10:32:39.127Z,14.33
2019-01-29T10:35:14.421Z,14.57
2019-01-29T10:37:42.544Z,13.95
2019-01-29T10:40:12.049Z,13.47
2019-01-29T10:42:40.143Z,14.33
2019-01-29T10:45:12.516Z,15.77
2019-01-29T10:47:40.554Z,13.57
2019-01-29T10:50:10.292Z,12.68
2019-01-29T10:52:57.816Z,12.80
2019-01-29T10:55:25.912Z,15.00
2019-01-29T10:57:54.005Z,13.50
2019-01-29T11:00:36.847Z,12.40
2019-01-29T11:03:05.311Z,12.80
2019-01-29T11:05:33.622Z,12.37
2019-01-29T11:08:01.920Z,10.40
2019-01-29T11:10:29.943Z,11.97
2019-01-29T11:12:59.913Z,11.47
2019-01-29T11:15:34.017Z,11.50
2019-01-29T11:18:02.142Z,12.63
2019-01-29T11:20:30.147Z,10.78
2019-01-29T11:22:58.349Z,9.87
2019-01-29T11:25:27.777Z,10.43
2019-01-29T11:27:56.418Z,8.47
2019-01-29T11:30:25.991Z,8.70
2019-01-29T11:32:54.103Z,7.17
2019-01-29T11:35:23.810Z,6.60
2019-01-29T11:37:52.495Z,7.00
2019-01-29T11:40:22.239Z,7.20
2019-01-29T11:42:50.362Z,6.23
2019-01-29T11:45:23.172Z,6.30
2019-01-29T11:47:51.277Z,6.50
2019-01-29T11:50:19.362Z,6.70
2019-01-29T11:52:47.484Z,7.25
2019-01-29T11:55:15.680Z,6.77
2019-01-29T11:57:43.716Z,6.93
2019-01-29T12:00:14.842Z,6.70
2019-01-29T12:02:43.740Z,7.60
2019-01-29T12:05:11.813Z,6.83
2019-01-29T12:07:40.001Z,7.00
2019-01-29T12:10:09.696Z,7.27
2019-01-29T12:12:37.793Z,6.60
2019-01-29T12:15:10.392Z,6.85
2019-01-29T12:17:38.492Z,7.53
2019-01-29T12:20:08.136Z,7.23
2019-01-29T12:22:36.227Z,7.67
2019-01-29T12:25:05.153Z,8.40
2019-01-29T12:27:33.407Z,5.93
2019-01-29T12:30:01.523Z,5.83
2019-01-29T12:32:29.619Z,4.83
2019-01-29T12:34:57.680Z,5.58
2019-01-29T12:37:25.793Z,6.47
2019-01-29T12:39:55.249Z,5.33
2019-01-29T12:42:24.517Z,7.90
2019-01-29T12:44:52.533Z,5.97
2019-01-29T12:47:20.717Z,5.50
2019-01-29T12:49:48.774Z,5.15
2019-01-29T12:52:18.516Z,5.22
2019-01-29T12:54:46.659Z,5.00
2019-01-29T12:57:14.771Z,4.03
2019-01-29T12:59:42.809Z,3.90
2019-01-29T13:02:10.858Z,4.23
2019-01-29T13:04:43.585Z,4.00
2019-01-29T13:07:15.212Z,6.07
2019-01-29T13:09:43.105Z,4.43
2019-01-29T13:12:11.277Z,4.20
2019-01-29T13:14:39.343Z,5.07
2019-01-29T13:17:07.370Z,4.80
2019-01-29T13:20:21.903Z,4.30
2019-01-29T13:22:30.659Z,3.53
2019-01-29T13:25:01.713Z,3.03
2019-01-29T13:27:29.735Z,3.50
2019-01-29T13:29:57.865Z,3.33
2019-01-29T13:32:25.992Z,4.17
2019-01-29T13:34:54.099Z,3.80
2019-01-29T13:37:22.331Z,3.67
2019-01-29T13:39:50.472Z,4.07
2019-01-29T13:42:18.534Z,3.87
2019-01-29T13:44:46.645Z,3.92
2019-01-29T13:47:17.222Z,3.70
2019-01-29T13:49:45.299Z,3.40
2019-01-29T13:52:13.316Z,3.13
2019-01-29T13:54:41.556Z,3.33
2019-01-29T13:57:13.582Z,2.43
2019-01-29T13:59:41.700Z,3.00
2019-01-29T14:02:20.150Z,2.50
2019-01-29T14:04:39.749Z,2.97
2019-01-29T14:07:07.789Z,3.37
2019-01-29T14:09:35.997Z,2.53
2019-01-29T14:12:05.783Z,2.50
2019-01-29T14:14:34.076Z,2.70
2019-01-29T14:17:02.099Z,2.25
2019-01-29T14:19:37.592Z,2.90
2019-01-29T14:22:07.261Z,2.70
2019-01-29T14:24:35.301Z,2.87
2019-01-29T14:27:06.577Z,2.30
2019-01-29T14:29:38.820Z,2.77
2019-01-29T14:32:06.949Z,2.50
2019-01-29T14:34:36.632Z,2.65
2019-01-29T14:37:07.686Z,3.00
2019-01-29T14:39:40.672Z,2.65
2019-01-29T14:42:09.184Z,8.97
2019-01-29T14:44:37.627Z,5.97
2019-01-29T14:47:05.648Z,4.42
2019-01-29T14:49:33.767Z,3.57
2019-01-29T14:52:01.817Z,3.00
2019-01-29T14:54:30.078Z,2.93
2019-01-29T14:56:58.164Z,3.43
2019-01-29T14:59:26.197Z,3.20
2019-01-29T15:01:54.350Z,3.20
2019-01-29T15:04:22.457Z,3.80
2019-01-29T15:06:52.964Z,4.00
2019-01-29T15:09:21.029Z,7.33
2019-01-29T15:11:49.112Z,5.80
2019-01-29T15:14:17.211Z,4.07
2019-01-29T15:16:46.948Z,4.05
2019-01-29T15:19:15.124Z,4.00
2019-01-29T15:21:43.854Z,4.08
2019-01-29T15:27:04.896Z,3.80
2019-01-29T15:27:14.130Z,4.13
2019-01-29T15:29:42.308Z,4.27
2019-01-29T15:32:10.381Z,4.33
2019-01-29T15:34:38.521Z,4.47
2019-01-29T15:37:06.601Z,4.63
2019-01-29T15:39:34.721Z,4.20
2019-01-29T15:42:02.782Z,4.50
2019-01-29T15:44:33.874Z,4.40
2019-01-29T15:47:08.163Z,4.43
2019-01-29T15:49:44.962Z,3.43
2019-01-29T15:52:10.560Z,3.53
2019-01-29T15:54:38.933Z,3.70
2019-01-29T15:57:14.096Z,4.50
2019-01-29T15:59:42.752Z,3.87
2019-01-29T16:02:06.654Z,3.60
2019-01-29T16:04:34.760Z,4.40
2019-01-29T16:07:02.977Z,4.70
2019-01-29T16:09:31.128Z,4.03
2019-01-29T16:11:59.316Z,4.70
2019-01-29T16:14:30.072Z,4.80
2019-01-29T16:19:59.454Z,4.87
2019-01-29T16:22:27.610Z,5.63
2019-01-29T16:24:56.289Z,4.62
2019-01-29T16:27:24.325Z,6.03
2019-01-29T16:29:52.402Z,4.45
2019-01-29T16:32:20.641Z,4.30
2019-01-29T16:34:48.671Z,5.43
2019-01-29T16:37:16.902Z,5.30
2019-01-29T16:39:45.175Z,4.97
2019-01-29T16:42:13.230Z,5.60
2019-01-29T16:44:41.412Z,5.53
2019-01-29T16:47:09.607Z,5.47
2019-01-29T16:49:37.766Z,5.97
2019-01-29T16:52:06.611Z,5.08
2019-01-29T16:54:34.661Z,5.70
2019-01-29T16:57:04.449Z,5.50
2019-01-29T16:59:32.984Z,5.00
2019-01-29T17:02:02.783Z,6.43
2019-01-29T17:04:30.930Z,6.93
2019-01-29T17:06:59.017Z,4.77
2019-01-29T17:09:29.511Z,5.42
2019-01-29T17:11:59.178Z,5.33
2019-01-29T17:14:34.783Z,5.63
2019-01-29T17:17:03.001Z,4.87
2019-01-29T17:19:31.105Z,5.50
2019-01-29T17:21:59.124Z,5.00
2019-01-29T17:24:32.267Z,6.90
2019-01-29T17:27:04.167Z,5.17
2019-01-29T17:29:34.736Z,5.05
2019-01-29T17:32:06.097Z,4.73
2019-01-29T17:34:35.946Z,5.23
2019-01-29T17:37:07.560Z,5.03
2019-01-29T17:39:42.904Z,4.33
2019-01-29T17:42:08.316Z,5.25
2019-01-29T17:44:44.783Z,5.80
2019-01-29T17:47:07.890Z,5.20
2019-01-29T17:49:50.338Z,4.93
2019-01-29T17:52:30.469Z,5.10
2019-01-29T17:55:03.293Z,7.47
2019-01-29T17:57:34.713Z,5.40
2019-01-29T18:00:04.444Z,4.70
2019-01-29T18:02:41.516Z,4.97
2019-01-29T18:05:09.617Z,5.47
2019-01-29T18:07:37.923Z,5.00
2019-01-29T18:10:10.437Z,5.17
2019-01-29T18:12:40.734Z,5.40
2019-01-29T18:15:12.937Z,4.92
2019-01-29T18:17:45.199Z,6.17
2019-01-29T18:20:16.030Z,7.50
2019-01-29T18:22:44.213Z,6.90
2019-01-29T18:25:19.490Z,5.97
2019-01-29T18:27:48.838Z,5.80
2019-01-29T18:30:24.209Z,6.17
2019-01-29T18:32:54.489Z,10.35
2019-01-29T18:35:22.793Z,7.70
2019-01-29T18:37:50.863Z,5.20
2019-01-29T18:40:25.420Z,5.83
2019-01-29T18:42:55.155Z,5.07
2019-01-29T18:45:24.898Z,5.90
2019-01-29T18:47:54.632Z,5.05
2019-01-29T18:50:22.679Z,6.00
2019-01-29T18:52:52.546Z,5.53
2019-01-29T18:55:47.926Z,5.00
2019-01-29T18:58:18.445Z,6.57
2019-01-29T19:00:54.300Z,5.73
2019-01-29T19:03:21.017Z,7.63
2019-01-29T19:05:51.820Z,5.90
2019-01-29T19:08:25.735Z,6.70
2019-01-29T19:10:57.171Z,6.47
2019-01-29T19:13:28.749Z,7.63
2019-01-29T19:15:56.877Z,5.80
2019-01-29T19:18:24.984Z,6.05
2019-01-29T19:20:55.843Z,7.77
2019-01-29T19:23:23.931Z,10.78
2019-01-29T19:25:52.419Z,5.43
2019-01-29T19:28:22.147Z,5.37
2019-01-29T19:30:50.554Z,5.70
2019-01-29T19:33:22.322Z,5.27
2019-01-29T19:35:50.452Z,5.63
2019-01-29T19:38:18.537Z,6.13
2019-01-29T19:40:49.592Z,6.33
2019-01-29T19:43:17.805Z,5.17
2019-01-29T19:45:45.870Z,6.67
2019-01-29T19:48:14.049Z,9.10
2019-01-29T19:50:42.464Z,6.07
2019-01-29T19:53:13.404Z,5.17
2019-01-29T19:55:45.362Z,5.13
2019-01-29T19:58:14.868Z,4.97
2019-01-29T20:00:46.157Z,5.00
2019-01-29T20:03:18.372Z,5.23
2019-01-29T20:05:48.175Z,5.17
2019-01-29T20:08:16.279Z,4.97
2019-01-29T20:10:51.725Z,8.20
2019-01-29T20:13:23.913Z,5.63
2019-01-29T20:15:52.117Z,7.00
2019-01-29T20:18:23.217Z,5.27
2019-01-29T20:20:51.413Z,5.77
2019-01-29T20:23:19.495Z,5.53
2019-01-29T20:25:47.657Z,5.80
2019-01-29T20:28:15.723Z,6.17
2019-01-29T20:30:43.752Z,7.90
2019-01-29T20:33:12.509Z,12.00
2019-01-29T20:35:40.585Z,6.73
2019-01-29T20:38:08.883Z,7.10
2019-01-29T20:40:36.976Z,6.27
2019-01-29T20:43:05.089Z,7.60
2019-01-29T20:45:33.450Z,6.08
2019-01-29T20:48:01.854Z,6.00
2019-01-29T20:50:31.317Z,6.33
2019-01-29T20:52:59.518Z,6.90
2019-01-29T20:55:27.586Z,6.43
2019-01-29T20:57:55.663Z,8.00
2019-01-29T21:00:28.157Z,9.37
2019-01-29T21:02:56.411Z,9.57
2019-01-29T21:05:24.586Z,8.87
2019-01-29T21:07:52.625Z,10.60
2019-01-29T21:10:21.439Z,9.40
2019-01-29T21:12:49.465Z,6.70
2019-01-29T21:15:18.639Z,7.10
2019-01-29T21:17:47.620Z,7.05
2019-01-29T21:20:16.657Z,6.27
2019-01-29T21:22:44.809Z,6.77
2019-01-29T21:25:12.947Z,6.77
2019-01-29T21:27:41.009Z,6.57
2019-01-29T21:30:19.558Z,6.20
2019-01-29T21:32:47.874Z,6.13
2019-01-29T21:35:15.892Z,6.30
2019-01-29T21:37:44.023Z,5.90
2019-01-29T21:40:13.081Z,5.80
2019-01-29T21:42:41.326Z,6.13
2019-01-29T21:45:11.016Z,5.53
2019-01-29T21:47:39.058Z,5.27
2019-01-29T21:50:11.878Z,5.43
2019-01-29T21:52:39.940Z,4.97
2019-01-29T21:55:09.242Z,4.73
2019-01-29T21:57:37.343Z,5.20
2019-01-29T22:00:07.260Z,9.03
2019-01-29T22:02:35.319Z,11.20
2019-01-29T22:05:04.229Z,5.95
2019-01-29T22:07:32.399Z,5.37
2019-01-29T22:10:00.445Z,5.40
2019-01-29T22:12:29.964Z,5.50
2019-01-29T22:14:58.075Z,4.85
2019-01-29T22:17:26.303Z,4.97
2019-01-29T22:19:54.505Z,4.62
2019-01-29T22:22:22.927Z,4.70
2019-01-29T22:24:51.000Z,5.40
2019-01-29T22:27:19.048Z,5.03
2019-01-29T22:29:47.364Z,4.87
2019-01-29T22:32:15.372Z,5.12
2019-01-29T22:34:43.433Z,5.30
2019-01-29T22:37:11.528Z,4.70
2019-01-29T22:39:39.544Z,4.70
2019-01-29T22:42:08.072Z,8.65
2019-01-29T22:44:36.157Z,5.87
2019-01-29T22:47:05.406Z,4.33
2019-01-29T22:49:33.469Z,5.30
2019-01-29T22:52:01.567Z,4.67
2019-01-29T22:54:29.616Z,4.17
2019-01-29T22:56:57.841Z,4.30
2019-01-29T22:59:33.188Z,4.45
2019-01-29T23:01:55.724Z,3.95
2019-01-29T23:04:23.897Z,4.73
2019-01-29T23:06:52.481Z,4.70
2019-01-29T23:09:20.529Z,6.30
2019-01-29T23:11:48.597Z,5.07
2019-01-29T23:14:16.664Z,5.07
2019-01-29T23:16:44.925Z,5.17
2019-01-29T23:19:12.976Z,5.27
2019-01-29T23:21:42.763Z,5.10
2019-01-29T23:24:18.227Z,5.07
2019-01-29T23:26:40.535Z,4.87
2019-01-29T23:29:08.801Z,4.50
2019-01-29T23:31:36.848Z,4.58
2019-01-29T23:34:04.904Z,4.75
2019-01-29T23:36:32.947Z,10.60
2019-01-29T23:39:01.017Z,14.13
2019-01-29T23:41:29.125Z,5.10
2019-01-29T23:43:57.301Z,4.47
2019-01-29T23:46:25.375Z,4.50
2019-01-29T23:48:53.723Z,4.80
2019-01-29T23:51:21.815Z,5.17
2019-01-29T23:53:49.936Z,4.33
2019-01-29T23:56:17.997Z,4.57
2019-01-29T23:58:46.000Z,4.33
